• Join FlightAware (Why Join?)
  • Login
  • US Flag 
05:55PM EST


 

Airport Tracker/Info


-or-


 

Live Flight TrackerFlight Track Log ✈ JTL393 ✈ 22-Sep-2013 ✈ KOMA - KAPA

Flight Track Log - Related Links

Times and Time Zones

All times are in EDT time to prevent confusion due to time zone crossing. See the JTL393 flight status page for this flight to view local times or setup timezone preferences in your user account.

Time Position Orientation Groundspeed Altitude Reporting Facility
EDT Latitude Longitude Course Direction KTS MPH feet Rate Location/Type
04:06PM 41.2894 -95.9008 175° South 148 170 1,600  Level Minneapolis Center
04:06PM 41.2600 -95.8975 175° South 159 183 3,700 2,880 Climbing Minneapolis Center
04:07PM 41.2125 -95.9078 189° South 180 207 6,600 2,220 Climbing Minneapolis Center
04:08PM 41.1908 -95.9867 250° West 215 247 8,400 1,980 Climbing Minneapolis Center
04:09PM 41.1758 -96.0825 258° West 251 289 10,800 2,220 Climbing Minneapolis Center
04:10PM 41.1575 -96.1864 257° West 279 321 13,100 2,160 Climbing Minneapolis Center
04:11PM 41.1583 -96.2947 271° West 290 334 15,300 1,980 Climbing Minneapolis Center
04:12PM 41.1578 -96.4053 270° West 295 339 17,300 2,100 Climbing Minneapolis Center
04:13PM 41.1558 -96.5411 269° West 304 350 19,700 2,040 Climbing Minneapolis Center
04:14PM 41.1553 -96.6553 270° West 309 356 21,600 1,800 Climbing Minneapolis Center
04:16PM 41.1539 -96.7706 269° West 311 358 23,500 1,680 Climbing Minneapolis Center
04:17PM 41.1531 -96.8856 269° West 312 359 25,100 1,260 Climbing Minneapolis Center
04:18PM 41.1514 -97.0050 269° West 319 367 26,200 1,020 Climbing Minneapolis Center
04:19PM 41.1500 -97.1328 269° West 339 390 27,300 1,140 Climbing Minneapolis Center
04:20PM 41.1489 -97.2653 269° West 354 407 28,600 1,260 Climbing Minneapolis Center
04:21PM 41.1469 -97.4083 269° West 357 411 30,000 1,440 Climbing Minneapolis Center
04:22PM 41.1444 -97.5369 269° West 351 404 31,700 960 Climbing Minneapolis Center
04:23PM 41.1422 -97.6928 269° West 352 405 32,000 120 Climbing Minneapolis Center
04:24PM 41.1397 -97.8342 269° West 376 433 32,000  Level Minneapolis Center
04:25PM 41.1367 -97.9806 268° West 392 451 32,000  Level Minneapolis Center
04:26PM 41.1342 -98.1325 269° West 406 467 32,000  Level Minneapolis Center
04:27PM 41.1306 -98.2839 268° West 410 472 32,000  Level Minneapolis Center
04:28PM 41.1269 -98.4514 268° West 411 473 32,000  Level Minneapolis Center
04:29PM 41.1233 -98.6003 268° West 407 468 32,000 120 Level Minneapolis Center
04:30PM 41.1197 -98.7517 268° West 408 470 32,300 420 Climbing Minneapolis Center
04:31PM 41.1131 -98.9033 267° West 412 474 32,900 540 Climbing Minneapolis Center
04:32PM 41.0839 -99.0494 255° West 410 472 33,500 480 Climbing Minneapolis Center
04:33PM 41.0556 -99.2208 258° West 403 464 34,000 240 Climbing Minneapolis Center
04:34PM 41.0314 -99.3664 258° West 404 465 34,000  Level Minneapolis Center
04:35PM 41.0072 -99.5125 258° West 406 467 34,000  Level Minneapolis Center
04:36PM 40.9828 -99.6589 258° West 407 468 34,000 -300 Level Minneapolis Center
04:37PM 40.9575 -99.8053 257° West 409 471 33,500 -600 Descending Minneapolis Center
04:38PM 40.9325 -99.9528 257° West 410 472 32,800 -780 Descending Minneapolis Center
04:39PM 40.9017 -100.1308 257° West 412 474 32,000 -420 Descending Minneapolis Center
04:40PM 40.8753 -100.2783 257° West 413 475 32,000  Level Minneapolis Center
04:41PM 40.8492 -100.4256 257° West 412 474 32,000  Level Minneapolis Center
04:42PM 40.8225 -100.5725 257° West 412 474 32,000  Level Minneapolis Center
04:44PM 40.7839 -100.7811 256° West 419 482 32,000  Level Denver Center
04:45PM 40.7572 -100.9244 256° West 414 476 32,000  Level Denver Center
04:46PM 40.7272 -101.0900 257° West 415 478 32,000  Level Denver Center
04:47PM 40.7014 -101.2319 257° West 416 479 32,000  Level Denver Center
04:48PM 40.6703 -101.3983 256° West 418 481 32,000 -480 Level Denver Center
04:49PM 40.6447 -101.5378 256° West 412 474 31,100 -960 Descending Denver Center
04:50PM 40.6133 -101.6992 256° West 408 470 30,100 -540 Descending Denver Center
04:51PM 40.5867 -101.8383 256° West 410 472 30,000 -60 Descending Denver Center
04:52PM 40.5553 -101.9981 256° West 406 467 30,000  Level Denver Center
04:53PM 40.5286 -102.1358 256° West 406 467 30,000  Level Denver Center
04:54PM 40.4964 -102.2967 255° West 408 470 30,000  Level Denver Center
04:55PM 40.4725 -102.4347 257° West 407 468 30,000  Level Denver Center
04:56PM 40.4425 -102.5933 256° West 402 463 30,000  Level Denver Center
04:57PM 40.4192 -102.7156 256° West 400 460 30,000  Level Denver Center
04:58PM 40.3875 -102.8867 256° West 403 464 30,000  Level Denver Center
04:59PM 40.3597 -103.0311 256° West 408 470 30,000  Level Denver Center
05:00PM 40.3317 -103.1764 256° West 413 475 30,000  Level Denver Center
05:01PM 40.3028 -103.3256 256° West 422 486 30,000 -840 Level Denver Center
05:02PM 40.2744 -103.4750 256° West 424 488 28,300 -2,160 Descending Denver Center
05:03PM 40.2408 -103.6475 256° West 408 470 25,600 -2,460 Descending Denver Center
05:05PM 40.2142 -103.7778 255° West 374 430 23,300 -2,040 Descending Denver Center
05:06PM 40.1828 -103.8881 250° West 332 382 21,400 -1,800 Descending Denver Center
05:07PM 40.1375 -103.9881 239° Southwest 298 343 19,700 -1,440 Descending Denver Center
05:08PM 40.0983 -104.0731 239° Southwest 277 319 18,400 -1,380 Descending Denver Center
05:09PM 40.0539 -104.1519 234° Southwest 252 290 16,900 -1,380 Descending Denver Center
05:10PM 39.9928 -104.1922 207° Southwest 248 285 15,600 -960 Descending Denver Center
05:11PM 39.9258 -104.2311 204° Southwest 263 303 15,000 -720 Descending Denver Center
05:12PM 39.8539 -104.2717 203° Southwest 263 303 14,200 -960 Descending Denver Center
05:13PM 39.7878 -104.3097 204° Southwest 260 299 13,100 -1,080 Descending Denver Center
05:14PM 39.7158 -104.3514 204° Southwest 262 302 12,000 -540 Descending Denver Center
05:15PM 39.6506 -104.3875 203° Southwest 256 295 12,000 -360 Level Denver Center
05:16PM 39.6350 -104.4797 258° West 285 328 11,300 -1,140 Descending Denver Center
05:17PM 39.6381 -104.5911 272° West 287 330 9,700 -1,320 Descending Denver Center
05:18PM 39.6408 -104.6867 272° West 267 307 8,600 -960 Descending Denver Center
05:19PM 39.6444 -104.7689 273° West 208 239 7,800 -720 Descending Denver Center
05:20PM 39.6478 -104.8286 274° West 170 196 7,200 -600 Descending Denver Center
05:21PM 39.6242 -104.8536 219° Southwest 141 162 6,600 -720 Descending Denver Center
05:22PM 39.5842 -104.8519 178° South 134 154 5,800 -780 Descending Denver Center
05:24PM 39.5701 -104.8493 174° South  Level Estimated
05:31PM 39.5701 -104.8493 174° South  Level Estimated
05:32PM 39.5701 -104.8493 174° South  Level Estimated